createdAt,value
2022-12-08T00:00:06.824Z,7.54
2022-12-08T00:02:44.324Z,7.62
2022-12-08T00:05:35.154Z,7.48
2022-12-08T00:08:27.961Z,7.54
2022-12-08T00:11:00.427Z,7.38
2022-12-08T00:13:32.757Z,7.46
2022-12-08T00:16:05.548Z,7.33
2022-12-08T00:18:38.266Z,7.48
2022-12-08T00:21:10.605Z,7.43
2022-12-08T00:23:43.717Z,7.44
2022-12-08T00:26:16.109Z,7.44
2022-12-08T00:28:48.501Z,7.44
2022-12-08T00:31:20.946Z,7.31
2022-12-08T00:33:53.405Z,7.36
2022-12-08T00:36:25.805Z,7.27
2022-12-08T00:38:59.145Z,7.30
2022-12-08T00:41:49.838Z,7.29
2022-12-08T00:44:22.249Z,7.34
2022-12-08T00:46:54.712Z,7.22
2022-12-08T00:49:27.058Z,7.14
2022-12-08T00:51:59.641Z,7.19
2022-12-08T00:54:32.675Z,7.25
2022-12-08T00:57:05.036Z,7.22
2022-12-08T00:59:37.450Z,7.09
2022-12-08T01:02:09.837Z,7.06
2022-12-08T01:04:42.386Z,7.07
2022-12-08T01:07:14.745Z,7.17
2022-12-08T01:09:47.784Z,7.22
2022-12-08T01:12:20.145Z,7.26
2022-12-08T01:14:52.552Z,7.21
2022-12-08T01:17:24.934Z,7.31
2022-12-08T01:19:57.275Z,7.29
2022-12-08T01:22:29.798Z,7.36
2022-12-08T01:25:03.203Z,7.43
2022-12-08T01:27:35.594Z,7.34
2022-12-08T01:30:09.377Z,7.34
2022-12-08T01:32:41.860Z,7.35
2022-12-08T01:35:14.291Z,7.21
2022-12-08T01:37:46.740Z,7.25
2022-12-08T01:40:19.916Z,7.29
2022-12-08T01:42:52.326Z,7.25
2022-12-08T01:45:26.407Z,7.21
2022-12-08T01:48:03.388Z,7.23
2022-12-08T01:50:36.115Z,7.14
2022-12-08T01:53:12.309Z,7.03
2022-12-08T01:55:49.863Z,6.92
2022-12-08T01:58:27.561Z,6.95
2022-12-08T02:01:00.021Z,6.75
2022-12-08T02:03:39.649Z,6.79
2022-12-08T02:06:12.312Z,6.73
2022-12-08T02:08:46.401Z,6.82
2022-12-08T02:11:19.465Z,6.81
2022-12-08T02:13:53.972Z,6.72
2022-12-08T02:16:37.940Z,6.91
2022-12-08T02:19:51.936Z,6.91
2022-12-08T02:22:31.252Z,6.85
2022-12-08T02:25:09.530Z,6.83
2022-12-08T02:27:56.305Z,6.77
2022-12-08T02:30:37.904Z,6.72
2022-12-08T02:33:50.884Z,6.61
2022-12-08T02:36:27.041Z,6.47
2022-12-08T02:39:08.951Z,6.48
2022-12-08T02:41:49.032Z,6.54
2022-12-08T02:44:29.146Z,6.61
2022-12-08T02:47:05.646Z,6.62
2022-12-08T02:49:38.018Z,6.55
2022-12-08T02:52:42.243Z,6.62
2022-12-08T02:55:24.455Z,6.61
2022-12-08T02:58:18.819Z,6.61
2022-12-08T03:01:28.685Z,6.45
2022-12-08T03:04:08.381Z,6.55
2022-12-08T03:06:48.515Z,6.57
2022-12-08T03:09:30.099Z,6.56
2022-12-08T03:12:10.229Z,6.53
2022-12-08T03:14:46.881Z,6.46
2022-12-08T03:17:22.258Z,6.41
2022-12-08T03:19:56.480Z,6.45
2022-12-08T03:22:29.238Z,6.44
2022-12-08T03:25:02.329Z,6.51
2022-12-08T03:27:34.717Z,6.29
2022-12-08T03:30:08.369Z,6.39
2022-12-08T03:32:47.040Z,6.34
2022-12-08T03:35:23.698Z,6.29
2022-12-08T03:38:02.648Z,6.25
2022-12-08T03:40:35.713Z,6.20
2022-12-08T03:43:08.098Z,6.29
2022-12-08T03:45:40.388Z,6.37
2022-12-08T03:48:12.778Z,6.39
2022-12-08T03:50:45.088Z,6.40
2022-12-08T03:53:17.437Z,6.11
2022-12-08T03:55:50.443Z,6.26
2022-12-08T03:58:22.807Z,6.18
2022-12-08T04:00:55.118Z,6.30
2022-12-08T04:03:27.522Z,6.35
2022-12-08T04:05:59.947Z,6.36
2022-12-08T04:08:32.315Z,6.43
2022-12-08T04:11:06.106Z,6.49
2022-12-08T04:13:40.290Z,6.52
2022-12-08T04:16:17.296Z,6.42
2022-12-08T04:18:50.259Z,6.66
2022-12-08T04:21:22.728Z,6.56
2022-12-08T04:24:00.825Z,6.49
2022-12-08T04:26:34.377Z,6.54
2022-12-08T04:29:06.737Z,6.57
2022-12-08T04:31:39.126Z,6.61
2022-12-08T04:34:11.579Z,6.58
2022-12-08T04:36:43.984Z,6.56
2022-12-08T04:39:16.324Z,6.57
2022-12-08T04:41:49.325Z,6.59
2022-12-08T04:44:21.736Z,6.55
2022-12-08T04:46:54.146Z,6.58
2022-12-08T04:49:26.541Z,6.63
2022-12-08T04:51:58.930Z,6.69
2022-12-08T04:54:31.292Z,6.68
2022-12-08T04:57:04.535Z,6.80
2022-12-08T04:59:37.004Z,6.83
2022-12-08T05:02:09.500Z,6.94
2022-12-08T05:04:41.993Z,6.96
2022-12-08T05:07:14.399Z,7.01
2022-12-08T05:09:46.724Z,6.95
2022-12-08T05:12:19.781Z,6.89
2022-12-08T05:14:52.125Z,6.85
2022-12-08T05:17:24.502Z,6.88
2022-12-08T05:19:56.844Z,6.85
2022-12-08T05:22:30.153Z,6.82
2022-12-08T05:25:02.606Z,6.84
2022-12-08T05:27:36.127Z,6.81
2022-12-08T05:30:08.917Z,6.80
2022-12-08T05:32:41.262Z,6.92
2022-12-08T05:35:13.738Z,6.93
2022-12-08T05:37:46.122Z,6.90
2022-12-08T05:40:18.704Z,6.89
2022-12-08T05:42:52.323Z,6.94
2022-12-08T05:45:24.805Z,6.87
2022-12-08T05:47:57.230Z,6.89
2022-12-08T05:50:29.677Z,6.89
2022-12-08T05:53:02.906Z,7.05
2022-12-08T05:55:35.276Z,7.08
2022-12-08T05:58:12.594Z,7.12
2022-12-08T06:00:46.536Z,7.14
2022-12-08T06:03:19.232Z,7.18
2022-12-08T06:05:51.686Z,7.21
2022-12-08T06:08:24.075Z,7.18
2022-12-08T06:10:56.490Z,7.14
2022-12-08T06:13:29.575Z,7.08
2022-12-08T06:16:04.526Z,7.08
2022-12-08T06:18:36.988Z,7.10
2022-12-08T06:21:10.986Z,7.25
2022-12-08T06:23:43.469Z,7.28
2022-12-08T06:26:16.544Z,7.27
2022-12-08T06:28:50.251Z,7.37
2022-12-08T06:31:24.673Z,7.42
2022-12-08T06:33:57.180Z,7.45
2022-12-08T06:36:29.789Z,7.49
2022-12-08T06:39:02.169Z,7.39
2022-12-08T06:41:54.615Z,7.49
2022-12-08T06:44:27.658Z,7.49
2022-12-08T06:47:00.036Z,7.45
2022-12-08T06:49:32.359Z,7.53
2022-12-08T06:52:04.868Z,7.57
2022-12-08T06:54:37.252Z,7.63
2022-12-08T06:57:09.637Z,7.60
2022-12-08T06:59:42.647Z,7.59
2022-12-08T07:02:15.177Z,7.60
2022-12-08T07:04:47.606Z,7.62
2022-12-08T07:07:19.972Z,7.48
2022-12-08T07:09:52.283Z,7.53
2022-12-08T07:12:24.656Z,7.55
2022-12-08T07:14:58.269Z,7.45
2022-12-08T07:17:30.674Z,7.58
2022-12-08T07:20:03.833Z,7.63
2022-12-08T07:22:36.468Z,7.66
2022-12-08T07:25:09.415Z,7.62
2022-12-08T07:27:41.760Z,7.59
2022-12-08T07:30:14.852Z,7.62
2022-12-08T07:32:47.307Z,7.70
2022-12-08T07:35:19.685Z,7.71
2022-12-08T07:37:52.012Z,7.84
2022-12-08T07:40:24.646Z,7.89
2022-12-08T07:42:57.010Z,7.99
2022-12-08T07:45:31.824Z,8.04
2022-12-08T07:48:04.990Z,8.15
2022-12-08T07:50:37.460Z,8.16
2022-12-08T07:53:10.060Z,8.26
2022-12-08T07:55:43.436Z,8.38
2022-12-08T07:58:15.798Z,8.49
2022-12-08T08:00:48.948Z,8.61
2022-12-08T08:03:21.761Z,8.76
2022-12-08T08:05:54.172Z,8.94
2022-12-08T08:08:26.552Z,8.92
2022-12-08T08:10:59.029Z,9.01
2022-12-08T08:13:31.463Z,9.18
2022-12-08T08:16:05.753Z,9.25
2022-12-08T08:18:38.199Z,9.32
2022-12-08T08:24:02.991Z,9.57
2022-12-08T08:26:36.355Z,9.15
2022-12-08T08:29:08.724Z,9.30
2022-12-08T08:31:41.891Z,9.40
2022-12-08T08:34:14.320Z,9.52
2022-12-08T08:36:46.722Z,9.49
2022-12-08T08:39:19.173Z,9.69
2022-12-08T08:41:51.844Z,9.47
2022-12-08T08:44:24.215Z,9.59
2022-12-08T08:46:57.315Z,9.75
2022-12-08T08:49:33.898Z,9.69
2022-12-08T08:52:07.093Z,9.89
2022-12-08T08:54:39.518Z,9.84
2022-12-08T08:57:11.850Z,9.98
2022-12-08T08:59:45.083Z,10.23
2022-12-08T09:02:19.308Z,10.42
2022-12-08T09:04:51.941Z,10.51
2022-12-08T09:07:24.349Z,10.63
2022-12-08T09:10:01.664Z,10.78
2022-12-08T09:12:34.972Z,11.02
2022-12-08T09:15:07.764Z,11.07
2022-12-08T09:17:40.800Z,11.18
2022-12-08T09:20:13.269Z,11.40
2022-12-08T09:22:46.446Z,11.26
2022-12-08T09:25:18.856Z,11.43
2022-12-08T09:27:51.231Z,11.46
2022-12-08T09:30:24.425Z,11.71
2022-12-08T09:32:57.460Z,11.76
2022-12-08T09:35:29.839Z,11.76
2022-12-08T09:38:02.235Z,11.71
2022-12-08T09:40:42.047Z,11.60
2022-12-08T09:43:29.511Z,11.67
2022-12-08T09:46:05.953Z,11.98
2022-12-08T09:48:44.236Z,11.89
2022-12-08T09:51:17.820Z,11.65
2022-12-08T09:53:54.944Z,11.52
2022-12-08T09:56:33.022Z,11.37
2022-12-08T09:59:16.720Z,11.50
2022-12-08T10:01:50.311Z,11.63
2022-12-08T10:04:28.375Z,11.66
2022-12-08T10:07:04.838Z,11.87
2022-12-08T10:09:41.560Z,11.93
2022-12-08T10:12:20.920Z,11.76
2022-12-08T10:15:02.110Z,11.82
2022-12-08T10:17:40.521Z,11.82
2022-12-08T10:20:17.795Z,11.53
2022-12-08T10:22:55.399Z,11.70
2022-12-08T10:25:35.485Z,11.45
2022-12-08T10:28:09.179Z,11.46
2022-12-08T10:30:41.752Z,11.26
2022-12-08T10:33:17.617Z,11.48
2022-12-08T10:35:53.491Z,11.44
2022-12-08T10:38:29.500Z,11.34
2022-12-08T10:41:06.178Z,11.53
2022-12-08T10:43:44.051Z,11.54
2022-12-08T10:46:19.421Z,11.33
2022-12-08T10:48:54.200Z,11.44
2022-12-08T10:51:36.293Z,11.59
2022-12-08T10:54:26.840Z,11.26
2022-12-08T10:56:59.163Z,11.52
2022-12-08T10:59:33.736Z,11.37
2022-12-08T11:02:16.829Z,11.52
2022-12-08T11:04:59.445Z,11.46
2022-12-08T11:07:33.465Z,11.62
2022-12-08T11:10:15.152Z,11.46
2022-12-08T11:12:50.321Z,11.18
2022-12-08T11:15:33.485Z,10.92
2022-12-08T11:18:22.111Z,11.03
2022-12-08T11:21:01.074Z,11.28
2022-12-08T11:23:36.169Z,11.47
2022-12-08T11:26:18.746Z,11.65
2022-12-08T11:28:51.393Z,11.49
2022-12-08T11:31:30.741Z,11.58
2022-12-08T11:34:03.731Z,11.63
2022-12-08T11:36:37.965Z,11.35
2022-12-08T11:39:12.778Z,11.24
2022-12-08T11:41:46.888Z,11.04
2022-12-08T11:44:28.691Z,11.05
2022-12-08T11:47:06.501Z,10.88
2022-12-08T11:49:42.304Z,11.17
2022-12-08T11:52:22.324Z,11.37
2022-12-08T11:55:02.546Z,11.39
2022-12-08T11:57:35.053Z,11.33
2022-12-08T12:00:12.820Z,11.37
2022-12-08T12:02:52.299Z,11.37
2022-12-08T12:08:40.345Z,11.35
2022-12-08T12:11:37.345Z,11.22
2022-12-08T12:14:24.880Z,11.23
2022-12-08T12:17:02.874Z,11.37
2022-12-08T12:19:39.073Z,11.33
2022-12-08T12:22:16.560Z,11.22
2022-12-08T12:24:52.177Z,11.20
2022-12-08T12:27:29.691Z,11.41
2022-12-08T12:30:07.478Z,11.61
2022-12-08T12:32:44.571Z,11.68
2022-12-08T12:35:27.325Z,11.65
2022-12-08T12:38:24.971Z,11.65
2022-12-08T12:41:01.107Z,11.37
2022-12-08T12:43:35.742Z,11.08
2022-12-08T12:46:40.961Z,11.23
2022-12-08T12:49:50.978Z,11.39
2022-12-08T12:52:56.567Z,11.10
2022-12-08T12:55:54.169Z,11.13
2022-12-08T12:58:40.159Z,11.14
2022-12-08T13:01:55.087Z,11.09
2022-12-08T13:04:31.269Z,10.98
2022-12-08T13:07:04.385Z,10.97
2022-12-08T13:09:39.060Z,11.17
2022-12-08T13:12:19.756Z,11.01
2022-12-08T13:14:56.353Z,11.09
2022-12-08T13:17:32.434Z,11.28
2022-12-08T13:20:17.225Z,10.98
2022-12-08T13:23:01.580Z,11.04
2022-12-08T13:25:51.335Z,11.06
2022-12-08T13:28:25.136Z,10.95
2022-12-08T13:30:59.183Z,10.91
2022-12-08T13:33:37.265Z,10.78
2022-12-08T13:36:19.480Z,10.81
2022-12-08T13:38:56.268Z,10.88
2022-12-08T13:41:34.340Z,10.75
2022-12-08T13:59:09.224Z,10.94
2022-12-08T14:01:45.442Z,10.85
2022-12-08T14:07:13.810Z,10.76
2022-12-08T14:09:46.566Z,10.63
2022-12-08T14:12:22.020Z,10.40
2022-12-08T14:15:04.130Z,10.48
2022-12-08T14:17:39.698Z,10.44
2022-12-08T14:20:22.139Z,10.32
2022-12-08T14:22:55.379Z,10.39
2022-12-08T14:25:29.425Z,10.28
2022-12-08T14:28:04.302Z,10.49
2022-12-08T14:30:39.274Z,10.38
2022-12-08T14:33:16.127Z,10.26
2022-12-08T14:35:54.388Z,10.31
2022-12-08T14:38:27.057Z,10.28
2022-12-08T14:41:02.357Z,10.38
2022-12-08T14:43:35.381Z,10.44
2022-12-08T14:46:20.155Z,10.50
2022-12-08T14:48:52.973Z,10.50
2022-12-08T14:51:30.626Z,10.41
2022-12-08T14:54:08.162Z,10.53
2022-12-08T14:56:47.974Z,10.44
2022-12-08T14:59:22.234Z,10.32
2022-12-08T15:02:10.606Z,10.27
2022-12-08T15:04:45.776Z,10.33
2022-12-08T15:07:21.416Z,10.27
2022-12-08T15:10:10.147Z,10.40
2022-12-08T15:12:57.166Z,10.20
2022-12-08T15:15:31.104Z,10.24
2022-12-08T15:18:12.118Z,10.24
2022-12-08T15:20:46.625Z,10.27
2022-12-08T15:23:26.877Z,10.26
2022-12-08T15:25:59.754Z,10.27
2022-12-08T15:28:32.155Z,10.24
2022-12-08T15:31:04.604Z,10.25
2022-12-08T15:33:37.109Z,10.20
2022-12-08T15:36:09.942Z,10.19
2022-12-08T15:38:43.122Z,9.96
2022-12-08T15:41:15.539Z,10.10
2022-12-08T15:43:48.062Z,9.96
2022-12-08T15:46:20.531Z,9.93
2022-12-08T15:48:57.988Z,9.90
2022-12-08T15:51:35.706Z,9.92
2022-12-08T15:54:08.963Z,9.92
2022-12-08T15:57:17.299Z,9.89
2022-12-08T15:59:38.280Z,9.87
2022-12-08T16:02:15.484Z,9.85
2022-12-08T16:07:42.685Z,9.90
2022-12-08T16:10:17.558Z,9.84
2022-12-08T16:13:56.312Z,9.90
2022-12-08T16:16:01.554Z,9.81
2022-12-08T16:18:36.477Z,9.79
2022-12-08T16:21:35.501Z,9.78
2022-12-08T16:24:08.878Z,9.70
2022-12-08T16:27:51.180Z,9.70
2022-12-08T16:29:34.783Z,9.72
2022-12-08T16:32:07.304Z,9.59
2022-12-08T16:34:39.762Z,9.58
2022-12-08T16:37:15.090Z,9.58
2022-12-08T16:39:49.445Z,9.59
2022-12-08T16:42:42.795Z,9.49
2022-12-08T16:45:17.350Z,9.53
2022-12-08T16:47:51.299Z,9.57
2022-12-08T16:50:25.846Z,9.27
2022-12-08T16:53:00.352Z,9.42
2022-12-08T16:55:33.659Z,9.44
2022-12-08T16:58:06.816Z,9.40
2022-12-08T17:00:39.544Z,9.41
2022-12-08T17:03:14.816Z,9.39
2022-12-08T17:05:47.218Z,9.38
2022-12-08T17:08:19.671Z,9.30
2022-12-08T17:11:06.507Z,9.31
2022-12-08T17:13:41.414Z,9.30
2022-12-08T17:16:17.256Z,9.46
2022-12-08T17:18:49.959Z,9.36
2022-12-08T17:21:22.409Z,9.43
2022-12-08T17:23:54.834Z,9.45
2022-12-08T17:26:27.167Z,9.51
2022-12-08T17:29:01.670Z,9.53
2022-12-08T17:31:34.454Z,9.50
2022-12-08T17:34:09.475Z,9.38
2022-12-08T17:36:41.792Z,9.55
2022-12-08T17:39:18.398Z,9.56
2022-12-08T17:41:51.389Z,9.60
2022-12-08T17:44:24.695Z,9.55
2022-12-08T17:46:57.185Z,9.61
2022-12-08T17:49:32.065Z,9.59
2022-12-08T17:52:06.461Z,9.50
2022-12-08T17:54:38.936Z,9.46
2022-12-08T17:57:11.459Z,9.46
2022-12-08T17:59:44.584Z,9.49
2022-12-08T18:02:18.126Z,9.45
2022-12-08T18:04:50.614Z,9.44
2022-12-08T18:07:22.970Z,9.42
2022-12-08T18:09:55.971Z,9.50
2022-12-08T18:12:28.384Z,9.54
2022-12-08T18:15:01.602Z,9.32
2022-12-08T18:17:33.950Z,9.54
2022-12-08T18:20:08.040Z,9.64
2022-12-08T18:22:41.092Z,9.59
2022-12-08T18:25:13.664Z,9.62
2022-12-08T18:27:46.071Z,9.52
2022-12-08T18:30:19.404Z,9.59
2022-12-08T18:32:55.844Z,9.46
2022-12-08T18:35:29.725Z,9.44
2022-12-08T18:38:02.080Z,9.35
2022-12-08T18:40:34.538Z,9.29
2022-12-08T18:43:06.911Z,9.41
2022-12-08T18:45:40.088Z,9.49
2022-12-08T18:48:13.540Z,9.33
2022-12-08T18:50:45.913Z,9.57
2022-12-08T18:53:18.435Z,9.46
2022-12-08T18:55:50.891Z,9.49
2022-12-08T18:58:23.441Z,9.46
2022-12-08T19:00:56.541Z,9.35
2022-12-08T19:03:28.969Z,9.45
2022-12-08T19:06:03.350Z,9.32
2022-12-08T19:08:35.812Z,9.30
2022-12-08T19:11:17.527Z,9.30
2022-12-08T19:13:50.160Z,9.42
2022-12-08T19:16:23.469Z,9.35
2022-12-08T19:18:55.893Z,9.21
2022-12-08T19:21:28.485Z,9.30
2022-12-08T19:24:01.091Z,9.24
2022-12-08T19:26:33.567Z,9.26
2022-12-08T19:29:05.938Z,9.29
2022-12-08T19:31:39.495Z,9.23
2022-12-08T19:34:13.513Z,9.22
2022-12-08T19:36:45.990Z,9.21
2022-12-08T19:39:40.257Z,9.18
2022-12-08T19:42:32.856Z,9.23
2022-12-08T19:45:09.382Z,9.18
2022-12-08T19:47:42.823Z,9.20
2022-12-08T19:50:34.615Z,9.25
2022-12-08T19:53:10.356Z,9.09
2022-12-08T19:55:43.694Z,9.16
2022-12-08T19:58:16.305Z,9.17
2022-12-08T20:00:49.136Z,9.29
2022-12-08T20:03:22.370Z,9.37
2022-12-08T20:05:54.879Z,9.13
2022-12-08T20:08:27.941Z,9.17
2022-12-08T20:11:00.370Z,9.21
2022-12-08T20:13:44.000Z,9.24
2022-12-08T20:16:17.071Z,9.11
2022-12-08T20:18:50.325Z,9.11
2022-12-08T20:21:22.846Z,9.19
2022-12-08T20:23:55.555Z,9.15
2022-12-08T20:26:28.049Z,9.17
2022-12-08T20:29:00.694Z,9.13
2022-12-08T20:31:33.319Z,9.06
2022-12-08T20:34:06.585Z,8.79
2022-12-08T20:36:38.947Z,9.04
2022-12-08T20:39:13.211Z,8.69
2022-12-08T20:41:46.460Z,8.56
2022-12-08T20:44:18.884Z,8.43
2022-12-08T20:46:51.352Z,8.40
2022-12-08T20:49:27.300Z,8.44
2022-12-08T20:52:03.565Z,8.50
2022-12-08T20:54:37.062Z,8.56
2022-12-08T20:57:09.619Z,8.65
2022-12-08T20:59:42.392Z,8.66
2022-12-08T21:02:15.014Z,8.77
2022-12-08T21:04:48.543Z,8.66
2022-12-08T21:07:21.380Z,8.80
2022-12-08T21:09:54.164Z,8.80
2022-12-08T21:12:26.672Z,8.87
2022-12-08T21:14:59.570Z,8.69
2022-12-08T21:17:32.014Z,8.84
2022-12-08T21:20:07.414Z,8.89
2022-12-08T21:22:40.453Z,8.79
2022-12-08T21:25:12.993Z,8.92
2022-12-08T21:27:45.418Z,8.88
2022-12-08T21:30:18.125Z,8.87
2022-12-08T21:32:50.662Z,8.94
2022-12-08T21:35:23.716Z,8.90
2022-12-08T21:37:56.185Z,9.05
2022-12-08T21:40:28.681Z,8.97
2022-12-08T21:43:02.782Z,8.98
2022-12-08T21:45:35.316Z,9.06
2022-12-08T21:48:11.681Z,8.98
2022-12-08T21:50:45.103Z,9.15
2022-12-08T21:53:17.502Z,9.09
2022-12-08T21:55:49.977Z,9.16
2022-12-08T21:58:22.569Z,9.16
2022-12-08T22:00:55.178Z,9.13
2022-12-08T22:03:29.213Z,9.05
2022-12-08T22:06:06.070Z,9.04
2022-12-08T22:08:38.797Z,9.18
2022-12-08T22:11:11.692Z,9.02
2022-12-08T22:13:44.128Z,9.11
2022-12-08T22:16:16.860Z,9.29
2022-12-08T22:18:49.366Z,9.08
2022-12-08T22:21:22.445Z,9.15
2022-12-08T22:23:54.955Z,9.32
2022-12-08T22:26:27.434Z,9.25
2022-12-08T22:29:00.039Z,9.23
2022-12-08T22:31:32.477Z,9.27
2022-12-08T22:34:05.276Z,9.32
2022-12-08T22:36:38.354Z,9.43
2022-12-08T22:39:11.495Z,9.39
2022-12-08T22:41:43.856Z,9.28
2022-12-08T22:44:16.351Z,9.41
2022-12-08T22:46:48.837Z,9.37
2022-12-08T22:49:22.439Z,9.21
2022-12-08T22:51:55.487Z,9.23
2022-12-08T22:54:27.946Z,9.16
2022-12-08T22:57:00.526Z,9.18
2022-12-08T22:59:33.765Z,9.21
2022-12-08T23:02:06.312Z,9.17
2022-12-08T23:04:39.019Z,9.24
2022-12-08T23:07:12.146Z,9.26
2022-12-08T23:09:44.721Z,9.29
2022-12-08T23:12:17.140Z,9.27
2022-12-08T23:14:49.494Z,9.25
2022-12-08T23:17:22.099Z,9.26
2022-12-08T23:19:54.604Z,9.36
2022-12-08T23:22:27.953Z,9.23
2022-12-08T23:25:00.398Z,9.25
2022-12-08T23:27:33.068Z,9.21
2022-12-08T23:30:07.404Z,9.34
2022-12-08T23:32:40.396Z,9.19
2022-12-08T23:35:12.851Z,9.36
2022-12-08T23:37:46.127Z,9.30
2022-12-08T23:40:18.718Z,9.41
2022-12-08T23:42:51.152Z,9.44
2022-12-08T23:45:23.465Z,9.44
2022-12-08T23:47:56.001Z,9.37
2022-12-08T23:50:28.489Z,9.43
2022-12-08T23:53:01.611Z,9.53
2022-12-08T23:55:33.959Z,9.50
2022-12-08T23:58:06.429Z,9.50
